Time;durP1;ratioP1;P1;durP2;ratioP2;P2;SDS_P1;SDS_P2;PMS_P1;PMS_P2;Temp;Humidity;BMP_temperature;BMP_pressure;BME280_temperature;BME280_humidity;BME280_pressure;Samples;Min_cycle;Max_cycle;Signal;HPM_P1;HPM_P2
2022/02/20 00:09:31;;;;;;;1.35;0.70;;;9.10;66.90;;;;;;21055421;28;20056;-75
2022/02/20 00:19:32;;;;;;;1.10;0.82;;;9.10;66.90;;;;;;21054726;28;20031;-75
2022/02/20 00:29:32;;;;;;;0.22;0.20;;;9.10;67.00;;;;;;21045424;28;20071;-75
2022/02/20 00:39:33;;;;;;;1.13;0.45;;;9.10;67.00;;;;;;21052553;28;20032;-75
2022/02/20 00:49:34;;;;;;;2.63;0.47;;;9.20;67.10;;;;;;21051716;28;20637;-75
2022/02/20 00:59:35;;;;;;;0.52;0.40;;;9.10;67.10;;;;;;21084498;28;20035;-75
2022/02/20 01:09:35;;;;;;;1.92;0.32;;;9.10;67.20;;;;;;21049868;28;20048;-76
2022/02/20 01:19:37;;;;;;;1.17;0.40;;;9.10;67.40;;;;;;21065627;28;20089;-76
2022/02/20 01:29:38;;;;;;;0.90;0.40;;;9.10;67.30;;;;;;21064743;28;20506;-75
2022/02/20 01:39:38;;;;;;;0.85;0.25;;;9.10;67.30;;;;;;21049062;28;20071;-76
2022/02/20 01:49:44;;;;;;;1.17;0.50;;;9.20;67.50;;;;;;21030559;28;20123;-75
2022/02/20 01:59:44;;;;;;;0.35;0.30;;;9.10;67.50;;;;;;20961972;28;20445;-77
2022/02/20 02:09:55;;;;;;;1.83;0.60;;;9.10;67.50;;;;;;20949298;28;20036;-76
2022/02/20 02:20:08;;;;;;;0.82;0.60;;;9.10;67.50;;;;;;20965717;28;20028;-75
2022/02/20 02:30:29;;;;;;;0.32;0.30;;;9.10;67.60;;;;;;20965807;28;20669;-75
2022/02/20 02:40:29;;;;;;;1.17;0.60;;;9.10;67.60;;;;;;20976365;28;20055;-75
2022/02/20 02:50:30;;;;;;;0.90;0.37;;;9.10;67.70;;;;;;20941970;28;20339;-76
2022/02/20 03:00:33;;;;;;;1.38;0.32;;;9.10;67.70;;;;;;20975179;28;20340;-76
2022/02/20 03:10:34;;;;;;;1.33;0.32;;;9.10;67.80;;;;;;20958124;28;20098;-76
2022/02/20 03:20:36;;;;;;;0.20;0.17;;;9.10;67.90;;;;;;20941241;28;20025;-75
2022/02/20 03:30:37;;;;;;;1.98;0.40;;;9.10;68.00;;;;;;20940676;28;20040;-75
2022/02/20 03:40:41;;;;;;;0.90;0.40;;;9.10;68.00;;;;;;20974265;28;20036;-75
2022/02/20 03:50:43;;;;;;;0.75;0.30;;;9.10;68.20;;;;;;20956623;28;20044;-75
2022/02/20 04:00:46;;;;;;;0.40;0.30;;;9.10;68.30;;;;;;20943182;28;20041;-74
2022/02/20 04:11:04;;;;;;;0.43;0.30;;;9.10;68.40;;;;;;20991395;28;20116;-77
2022/02/20 04:21:13;;;;;;;1.08;0.40;;;9.10;68.60;;;;;;20972537;28;20020;-75
2022/02/20 04:31:17;;;;;;;0.65;0.30;;;9.10;68.60;;;;;;20970068;28;20049;-76
2022/02/20 04:41:21;;;;;;;1.80;0.57;;;9.10;68.70;;;;;;20969526;28;20473;-75
2022/02/20 04:51:22;;;;;;;1.25;0.52;;;9.10;68.70;;;;;;20985312;28;20090;-76
2022/02/20 05:01:24;;;;;;;1.77;0.70;;;9.00;68.70;;;;;;20967453;28;20032;-75
2022/02/20 05:11:47;;;;;;;3.92;0.88;;;9.00;68.80;;;;;;20986055;28;20048;-75
2022/02/20 05:21:47;;;;;;;0.88;0.47;;;9.10;68.90;;;;;;20983288;28;20025;-75
2022/02/20 05:31:48;;;;;;;1.40;0.57;;;9.00;68.90;;;;;;21016080;28;20047;-75
2022/02/20 05:41:54;;;;;;;1.50;0.82;;;9.10;69.00;;;;;;20999050;28;20024;-76
2022/02/20 05:51:56;;;;;;;2.00;0.73;;;9.00;68.90;;;;;;20964298;28;20032;-75
2022/02/20 06:02:04;;;;;;;1.10;0.77;;;9.00;68.90;;;;;;20965613;28;20035;-75
2022/02/20 06:12:05;;;;;;;1.30;0.80;;;9.10;69.00;;;;;;20962295;28;20044;-75
2022/02/20 06:22:22;;;;;;;1.40;0.68;;;9.10;69.00;;;;;;21029475;28;20040;-76
2022/02/20 06:32:42;;;;;;;1.98;1.13;;;9.10;68.90;;;;;;21103325;28;20110;-75
2022/02/20 06:42:44;;;;;;;1.27;0.80;;;9.10;68.90;;;;;;21127643;28;20028;-75
2022/02/20 06:52:51;;;;;;;1.33;0.80;;;9.00;68.80;;;;;;21095929;28;20035;-75
2022/02/20 07:03:06;;;;;;;2.33;0.88;;;9.00;68.90;;;;;;21127895;28;20059;-75
2022/02/20 07:13:07;;;;;;;0.80;0.60;;;9.00;68.90;;;;;;21125683;28;20710;-77
2022/02/20 07:23:08;;;;;;;1.92;0.80;;;9.00;68.80;;;;;;21112279;28;20464;-75
2022/02/20 07:33:08;;;;;;;0.85;0.60;;;9.00;68.90;;;;;;21107870;28;20050;-75
2022/02/20 07:43:09;;;;;;;1.77;0.65;;;9.00;68.80;;;;;;21123031;28;20032;-78
2022/02/20 07:53:11;;;;;;;0.95;0.73;;;9.00;68.80;;;;;;21157964;27;20505;-77
2022/02/20 08:03:12;;;;;;;1.20;0.68;;;9.00;68.80;;;;;;21225464;27;20054;-76
2022/02/20 08:13:12;;;;;;;1.17;0.80;;;9.00;68.80;;;;;;21191603;27;20069;-76
2022/02/20 08:23:13;;;;;;;0.83;0.57;;;9.00;69.50;;;;;;21139606;28;20042;-76
2022/02/20 08:33:14;;;;;;;1.13;0.65;;;9.00;68.80;;;;;;21138777;28;20321;-74
2022/02/20 08:43:15;;;;;;;0.70;0.40;;;9.00;68.80;;;;;;21153190;28;20073;-76
2022/02/20 08:53:16;;;;;;;1.20;0.60;;;9.00;68.90;;;;;;21103481;28;20630;-73
2022/02/20 09:03:17;;;;;;;1.13;0.60;;;9.00;68.90;;;;;;21136492;28;20123;-76
2022/02/20 09:13:18;;;;;;;0.85;0.50;;;9.00;68.90;;;;;;21120190;28;20378;-73
2022/02/20 09:23:19;;;;;;;3.88;0.50;;;9.00;68.90;;;;;;21101728;28;20063;-73
2022/02/20 09:33:19;;;;;;;1.58;0.50;;;9.00;68.90;;;;;;21099153;28;20126;-74
2022/02/20 09:43:20;;;;;;;0.38;0.38;;;9.00;68.90;;;;;;21097242;28;20028;-76
2022/02/20 09:53:20;;;;;;;2.42;0.55;;;9.00;68.90;;;;;;21049378;28;20108;-76
2022/02/20 10:03:31;;;;;;;0.90;0.50;;;9.00;69.00;;;;;;21068373;28;20028;-73
2022/02/20 10:13:31;;;;;;;0.77;0.40;;;9.00;69.00;;;;;;21132062;28;20043;-74
2022/02/20 10:23:39;;;;;;;0.80;0.45;;;9.10;69.10;;;;;;21165451;28;20069;-74
2022/02/20 10:34:12;;;;;;;2.60;0.60;;;9.10;69.10;;;;;;21115268;28;20048;-74
2022/02/20 10:44:13;;;;;;;1.95;1.35;;;9.00;69.70;;;;;;21110624;28;20035;-73
2022/02/20 10:54:13;;;;;;;0.30;0.30;;;9.00;69.10;;;;;;21074089;28;20119;-74
2022/02/20 11:04:15;;;;;;;0.20;0.17;;;9.00;69.10;;;;;;21051868;28;20306;-79
2022/02/20 11:14:21;;;;;;;0.77;0.40;;;9.00;69.10;;;;;;21058352;28;20112;-79
2022/02/20 11:24:21;;;;;;;16.25;0.90;;;9.10;69.20;;;;;;21226856;22;20052;-75
2022/02/20 11:34:22;;;;;;;0.80;0.50;;;9.10;69.30;;;;;;20807437;28;20478;-76
2022/02/20 11:44:23;;;;;;;1.88;0.40;;;9.10;69.40;;;;;;20790503;28;20103;-74
2022/02/20 11:54:24;;;;;;;0.55;0.38;;;9.10;69.60;;;;;;20790352;28;20029;-75
2022/02/20 12:04:25;;;;;;;4.25;0.65;;;9.10;69.70;;;;;;20885930;28;20037;-71
2022/02/20 12:14:30;;;;;;;3.05;0.35;;;9.10;69.80;;;;;;20868306;28;20086;-70
2022/02/20 12:24:49;;;;;;;0.88;0.47;;;9.10;69.90;;;;;;20890053;28;20044;-71
2022/02/20 12:34:57;;;;;;;1.42;0.82;;;9.10;69.90;;;;;;20899317;28;20424;-72
2022/02/20 12:45:07;;;;;;;1.25;0.40;;;9.20;70.10;;;;;;20915487;28;20060;-70
2022/02/20 12:55:09;;;;;;;1.25;0.45;;;9.20;70.20;;;;;;20898512;28;20029;-70
2022/02/20 13:05:13;;;;;;;0.75;0.45;;;9.20;70.30;;;;;;20865828;28;20041;-70
2022/02/20 13:15:16;;;;;;;0.28;0.28;;;9.20;70.70;;;;;;20898650;28;20103;-71
2022/02/20 13:25:17;;;;;;;0.82;0.40;;;9.20;71.10;;;;;;20897585;28;20041;-70
2022/02/20 13:35:34;;;;;;;0.75;0.40;;;9.20;71.60;;;;;;20880577;28;20075;-70
2022/02/20 13:45:37;;;;;;;1.07;0.50;;;9.20;72.30;;;;;;20865132;28;20029;-72
2022/02/20 13:55:38;;;;;;;0.40;0.38;;;9.20;72.80;;;;;;20864492;28;20548;-74
2022/02/20 14:05:41;;;;;;;5.88;0.77;;;9.10;73.40;;;;;;20854261;28;20171;-72
2022/02/20 14:15:41;;;;;;;0.63;0.60;;;9.20;73.90;;;;;;20897278;28;20061;-74
2022/02/20 14:25:53;;;;;;;1.15;0.73;;;9.20;74.10;;;;;;20960995;28;20044;-75
2022/02/20 14:36:00;;;;;;;0.43;0.40;;;9.20;74.20;;;;;;20918902;28;20033;-73
2022/02/20 14:46:01;;;;;;;0.60;0.45;;;9.20;74.20;;;;;;20909322;28;20102;-76
2022/02/20 14:56:02;;;;;;;1.45;0.85;;;9.20;74.30;;;;;;20878486;28;20040;-74
2022/02/20 15:06:04;;;;;;;1.33;0.50;;;9.20;74.40;;;;;;20853493;28;20392;-75
2022/02/20 15:16:05;;;;;;;1.30;0.60;;;9.30;74.40;;;;;;20848915;28;20033;-74
2022/02/20 15:26:07;;;;;;;2.63;0.70;;;9.20;74.40;;;;;;20823662;28;20061;-75
2022/02/20 15:36:08;;;;;;;0.95;0.90;;;9.20;74.40;;;;;;20813146;28;20075;-74
2022/02/20 15:46:09;;;;;;;1.38;1.27;;;9.20;74.50;;;;;;20830815;28;20040;-76
2022/02/20 15:56:10;;;;;;;2.88;0.80;;;9.20;74.40;;;;;;20864212;28;20397;-75
2022/02/20 16:06:13;;;;;;;0.85;0.50;;;9.30;74.60;;;;;;20874171;28;20048;-75
2022/02/20 16:16:13;;;;;;;0.45;0.40;;;9.30;74.60;;;;;;20887308;28;20052;-75
2022/02/20 16:26:14;;;;;;;1.13;0.60;;;9.30;74.50;;;;;;20889031;28;20033;-75
2022/02/20 16:36:15;;;;;;;2.63;0.60;;;9.30;74.60;;;;;;20873644;28;20037;-77
2022/02/20 16:46:23;;;;;;;2.85;0.52;;;9.30;74.90;;;;;;20897024;28;20040;-75
2022/02/20 16:56:27;;;;;;;3.08;0.80;;;9.30;75.20;;;;;;20887848;28;20032;-76
2022/02/20 17:06:28;;;;;;;0.93;0.47;;;9.30;75.40;;;;;;20885405;28;20049;-73
2022/02/20 17:16:29;;;;;;;1.15;0.68;;;9.30;75.60;;;;;;20900902;28;20536;-74
2022/02/20 17:26:29;;;;;;;1.80;0.50;;;9.30;75.70;;;;;;20897300;28;20064;-72
2022/02/20 17:36:31;;;;;;;0.75;0.45;;;9.30;75.90;;;;;;20897162;28;20143;-73
2022/02/20 17:46:33;;;;;;;2.15;0.63;;;9.30;76.00;;;;;;20894767;28;20041;-72
2022/02/20 17:56:34;;;;;;;4.72;0.60;;;9.30;76.10;;;;;;20872424;28;20072;-72
2022/02/20 18:06:34;;;;;;;0.30;0.30;;;9.30;76.60;;;;;;20872772;28;20026;-74
2022/02/20 18:16:35;;;;;;;0.82;0.40;;;9.30;75.90;;;;;;20931864;28;20031;-73
2022/02/20 18:26:36;;;;;;;0.98;0.40;;;9.30;75.80;;;;;;20939446;28;20047;-73
2022/02/20 18:36:38;;;;;;;1.25;0.47;;;9.30;75.70;;;;;;20973488;28;20492;-73
2022/02/20 18:46:39;;;;;;;1.38;0.40;;;9.30;75.60;;;;;;20911929;28;20789;-73
2022/02/20 18:56:40;;;;;;;2.72;0.60;;;9.40;75.60;;;;;;20859687;28;20043;-74
2022/02/20 19:06:41;;;;;;;0.65;0.22;;;9.30;75.50;;;;;;20875652;28;20044;-73
2022/02/20 19:16:41;;;;;;;1.07;0.37;;;9.30;75.50;;;;;;20855599;28;20401;-74
2022/02/20 19:26:42;;;;;;;0.65;0.38;;;9.30;75.50;;;;;;20890547;28;20381;-73
2022/02/20 19:36:43;;;;;;;0.73;0.38;;;9.40;75.50;;;;;;20870210;28;20033;-74
2022/02/20 19:46:43;;;;;;;0.35;0.30;;;9.30;75.40;;;;;;20872925;28;20076;-75
2022/02/20 19:56:44;;;;;;;0.70;0.32;;;9.40;75.40;;;;;;20856326;28;20433;-73
2022/02/20 20:06:45;;;;;;;0.38;0.15;;;9.30;75.30;;;;;;20872122;28;20078;-73
2022/02/20 20:16:46;;;;;;;0.80;0.32;;;9.40;75.30;;;;;;20855506;28;20393;-73
2022/02/20 20:26:47;;;;;;;1.05;0.32;;;9.30;75.30;;;;;;20906605;28;20037;-74
2022/02/20 20:36:47;;;;;;;0.38;0.25;;;9.40;75.40;;;;;;20866350;28;20407;-73
2022/02/20 20:46:48;;;;;;;0.10;0.10;;;9.40;75.40;;;;;;20895138;28;20133;-73
2022/02/20 20:56:49;;;;;;;0.63;0.47;;;9.40;75.40;;;;;;20901370;28;20037;-73
2022/02/20 21:06:49;;;;;;;0.75;0.30;;;9.40;75.30;;;;;;20900417;28;20037;-73
2022/02/20 21:16:50;;;;;;;0.30;0.30;;;9.40;75.30;;;;;;20888021;28;20132;-73
2022/02/20 21:26:50;;;;;;;0.63;0.30;;;9.40;75.30;;;;;;20866705;28;20440;-73
2022/02/20 21:36:56;;;;;;;0.30;0.30;;;9.40;75.30;;;;;;20896184;28;20039;-73
2022/02/20 21:46:56;;;;;;;0.20;0.20;;;9.40;75.40;;;;;;20867233;28;20044;-72
2022/02/20 21:56:57;;;;;;;0.30;0.30;;;9.40;75.50;;;;;;20880731;28;20182;-74
2022/02/20 22:06:57;;;;;;;0.15;0.10;;;9.40;75.50;;;;;;20880038;28;20378;-73
2022/02/20 22:16:58;;;;;;;0.20;0.20;;;9.40;75.60;;;;;;20895549;28;20385;-74
2022/02/20 22:26:58;;;;;;;0.25;0.10;;;9.40;75.60;;;;;;20894558;28;20500;-72
2022/02/20 22:36:59;;;;;;;1.33;0.28;;;9.40;75.60;;;;;;20876612;28;20037;-73
2022/02/20 22:47:01;;;;;;;0.25;0.17;;;9.40;75.50;;;;;;20860598;28;20037;-72
2022/02/20 22:57:02;;;;;;;1.98;1.00;;;9.40;75.40;;;;;;20861328;28;20039;-72
2022/02/20 23:07:03;;;;;;;0.75;0.30;;;9.40;75.40;;;;;;20874970;28;20496;-74
2022/02/20 23:17:04;;;;;;;0.20;0.20;;;9.40;75.40;;;;;;20875139;28;20516;-73
2022/02/20 23:27:05;;;;;;;1.20;0.30;;;9.50;75.50;;;;;;20858186;28;20072;-72
2022/02/20 23:37:05;;;;;;;0.82;0.40;;;9.50;75.50;;;;;;20890754;28;20480;-72
2022/02/20 23:47:06;;;;;;;0.20;0.20;;;9.50;75.50;;;;;;20858287;28;20039;-73
2022/02/20 23:57:07;;;;;;;0.20;0.10;;;9.50;75.50;;;;;;20889946;28;20116;-73
